createdAt,value
2023-03-08T00:02:14.478Z,15.68
2023-03-08T00:04:49.703Z,17.80
2023-03-08T00:07:25.886Z,17.60
2023-03-08T00:10:00.946Z,16.95
2023-03-08T00:12:36.891Z,15.47
2023-03-08T00:15:16.085Z,16.90
2023-03-08T00:17:51.164Z,20.58
2023-03-08T00:20:26.423Z,20.65
2023-03-08T00:23:04.061Z,17.15
2023-03-08T00:25:40.318Z,20.35
2023-03-08T00:28:15.474Z,16.95
2023-03-08T00:30:59.157Z,18.93
2023-03-08T00:33:34.746Z,19.70
2023-03-08T00:36:14.924Z,19.63
2023-03-08T00:38:51.392Z,16.83
2023-03-08T00:41:30.616Z,15.50
2023-03-08T00:44:09.163Z,18.80
2023-03-08T00:46:43.044Z,16.45
2023-03-08T00:49:23.309Z,15.70
2023-03-08T00:52:00.051Z,13.60
2023-03-08T00:54:35.789Z,17.40
2023-03-08T00:57:11.401Z,16.33
2023-03-08T00:59:48.091Z,17.60
2023-03-08T01:02:23.849Z,18.60
2023-03-08T01:05:04.505Z,21.53
2023-03-08T01:07:41.785Z,19.83
2023-03-08T01:10:19.250Z,20.35
2023-03-08T01:12:55.231Z,18.03
2023-03-08T01:15:31.530Z,19.80
2023-03-08T01:18:08.737Z,18.75
2023-03-08T01:20:48.838Z,19.77
2023-03-08T01:23:27.330Z,17.02
2023-03-08T01:26:05.378Z,13.83
2023-03-08T01:28:40.514Z,15.70
2023-03-08T01:31:17.942Z,14.10
2023-03-08T01:33:54.296Z,11.80
2023-03-08T01:36:34.416Z,13.35
2023-03-08T01:39:13.053Z,12.45
2023-03-08T01:41:52.151Z,11.30
2023-03-08T01:44:26.830Z,12.60
2023-03-08T01:47:03.027Z,11.35
2023-03-08T01:49:50.755Z,9.43
2023-03-08T01:52:29.665Z,11.73
2023-03-08T01:55:07.037Z,9.23
2023-03-08T01:57:45.796Z,9.30
2023-03-08T02:00:23.529Z,9.07
2023-03-08T02:03:02.293Z,9.65
2023-03-08T02:05:40.876Z,10.07
2023-03-08T02:08:27.199Z,9.75
2023-03-08T02:11:04.904Z,13.00
2023-03-08T02:13:42.660Z,9.50
2023-03-08T02:16:18.934Z,9.70
2023-03-08T02:18:58.490Z,9.50
2023-03-08T02:21:35.017Z,9.45
2023-03-08T02:24:22.273Z,9.18
2023-03-08T02:26:59.207Z,9.63
2023-03-08T02:29:37.307Z,8.18
2023-03-08T02:32:12.659Z,4.15
2023-03-08T02:34:51.311Z,6.95
2023-03-08T02:37:26.105Z,6.55
2023-03-08T02:40:05.362Z,6.90
2023-03-08T02:42:40.951Z,6.05
2023-03-08T02:45:18.981Z,7.40
2023-03-08T02:47:54.219Z,6.10
2023-03-08T02:50:31.848Z,11.25
2023-03-08T02:53:07.040Z,5.97
2023-03-08T02:55:50.021Z,7.63
2023-03-08T02:58:26.303Z,4.38
2023-03-08T03:01:02.692Z,6.32
2023-03-08T03:03:40.899Z,4.60
2023-03-08T03:06:19.183Z,5.45
2023-03-08T03:08:57.589Z,7.70
2023-03-08T03:11:36.720Z,9.40
2023-03-08T03:14:12.138Z,7.63
2023-03-08T03:16:51.273Z,8.02
2023-03-08T03:19:27.880Z,10.23
2023-03-08T03:22:03.959Z,5.63
2023-03-08T03:24:46.223Z,6.25
2023-03-08T03:27:27.838Z,8.20
2023-03-08T03:30:03.494Z,4.88
2023-03-08T03:32:41.316Z,7.28
2023-03-08T03:35:17.397Z,5.60
2023-03-08T03:37:55.216Z,7.30
2023-03-08T03:40:30.628Z,5.60
2023-03-08T03:43:14.537Z,6.90
2023-03-08T03:45:59.094Z,5.05
2023-03-08T03:48:35.330Z,7.63
2023-03-08T03:51:15.434Z,10.53
2023-03-08T03:53:54.290Z,7.80
2023-03-08T03:56:32.258Z,6.65
2023-03-08T03:59:12.542Z,7.05
2023-03-08T04:01:48.299Z,8.13
2023-03-08T04:07:11.047Z,7.30
2023-03-08T04:09:50.525Z,10.73
2023-03-08T04:15:03.625Z,6.82
2023-03-08T04:17:41.811Z,9.60
2023-03-08T04:23:01.059Z,7.80
2023-03-08T04:25:43.224Z,7.95
2023-03-08T04:28:24.334Z,7.85
2023-03-08T04:31:14.815Z,12.60
2023-03-08T04:33:51.773Z,8.32
2023-03-08T04:36:28.291Z,7.53
2023-03-08T04:39:06.054Z,6.88
2023-03-08T04:41:41.590Z,12.13
2023-03-08T04:44:29.456Z,9.30
2023-03-08T04:47:03.689Z,9.35
2023-03-08T04:49:49.278Z,12.67
2023-03-08T04:52:25.859Z,9.87
2023-03-08T04:55:03.642Z,16.75
2023-03-08T04:57:40.570Z,13.68
2023-03-08T05:00:21.998Z,8.75
2023-03-08T05:02:59.694Z,12.55
2023-03-08T05:05:39.012Z,13.80
2023-03-08T05:08:17.191Z,19.77
2023-03-08T05:10:53.098Z,10.68
2023-03-08T05:13:29.560Z,10.73
2023-03-08T05:16:05.353Z,11.23
2023-03-08T05:18:44.612Z,18.03
2023-03-08T05:21:24.680Z,16.50
2023-03-08T05:24:08.752Z,11.43
2023-03-08T05:26:48.903Z,11.05
2023-03-08T05:29:25.040Z,11.90
2023-03-08T05:32:09.031Z,17.25
2023-03-08T05:34:46.705Z,14.95
2023-03-08T05:37:32.956Z,16.30
2023-03-08T05:40:14.376Z,19.02
2023-03-08T05:42:51.928Z,18.45
2023-03-08T05:45:27.265Z,13.60
2023-03-08T05:48:07.349Z,11.45
2023-03-08T05:50:46.269Z,17.52
2023-03-08T05:53:27.936Z,15.23
2023-03-08T05:56:12.293Z,12.83
2023-03-08T05:58:52.097Z,19.30
2023-03-08T06:01:29.381Z,14.70
2023-03-08T06:04:14.032Z,12.70
2023-03-08T06:06:53.166Z,10.10
2023-03-08T06:09:37.785Z,14.25
2023-03-08T06:12:15.005Z,13.43
2023-03-08T06:14:57.704Z,11.38
2023-03-08T06:17:41.446Z,16.00
2023-03-08T06:20:18.564Z,12.23
2023-03-08T06:22:59.158Z,11.40
2023-03-08T06:25:40.228Z,10.20
2023-03-08T06:28:16.031Z,14.93
2023-03-08T06:30:53.711Z,10.85
2023-03-08T06:33:27.861Z,13.35
2023-03-08T06:36:06.905Z,13.27
2023-03-08T06:38:43.441Z,14.82
2023-03-08T06:41:23.095Z,19.10
2023-03-08T06:44:04.429Z,13.05
2023-03-08T06:46:39.104Z,13.05
2023-03-08T06:49:16.926Z,12.48
2023-03-08T06:51:53.573Z,12.65
2023-03-08T06:54:31.446Z,10.73
2023-03-08T06:57:10.841Z,11.27
2023-03-08T06:59:48.515Z,14.88
2023-03-08T07:02:23.608Z,9.90
2023-03-08T07:04:59.358Z,11.13
2023-03-08T07:07:35.988Z,9.15
2023-03-08T07:10:15.165Z,10.13
2023-03-08T07:12:53.682Z,11.55
2023-03-08T07:15:29.615Z,13.05
2023-03-08T07:18:05.967Z,9.38
2023-03-08T07:20:42.312Z,9.50
2023-03-08T07:23:19.221Z,12.32
2023-03-08T07:25:56.552Z,8.60
2023-03-08T07:28:33.186Z,9.00
2023-03-08T07:31:16.042Z,9.75
2023-03-08T07:33:52.477Z,8.77
2023-03-08T07:36:27.657Z,9.27
2023-03-08T07:39:05.839Z,16.38
2023-03-08T07:41:41.287Z,12.05
2023-03-08T07:44:15.655Z,9.63
2023-03-08T07:46:55.350Z,10.20
2023-03-08T07:49:32.649Z,8.80
2023-03-08T07:52:09.124Z,11.00
2023-03-08T07:54:44.811Z,10.63
2023-03-08T07:57:20.717Z,15.55
2023-03-08T08:00:00.426Z,10.10
2023-03-08T08:02:35.111Z,13.52
2023-03-08T08:05:15.990Z,13.55
2023-03-08T08:07:51.406Z,11.93
2023-03-08T08:10:26.810Z,11.40
2023-03-08T08:13:02.463Z,6.37
2023-03-08T08:15:39.133Z,8.65
2023-03-08T08:18:14.291Z,7.80
2023-03-08T08:20:54.568Z,9.00
2023-03-08T08:23:34.773Z,9.23
2023-03-08T08:26:10.840Z,7.50
2023-03-08T08:28:46.976Z,13.02
2023-03-08T08:34:00.158Z,5.75
2023-03-08T08:36:42.292Z,9.90
2023-03-08T08:39:17.983Z,8.40
2023-03-08T08:44:57.749Z,10.15
2023-03-08T08:47:33.354Z,10.98
2023-03-08T08:50:08.968Z,10.50
2023-03-08T08:52:49.361Z,10.27
2023-03-08T08:55:23.268Z,6.32
2023-03-08T08:58:02.033Z,7.65
2023-03-08T09:00:37.391Z,9.55
2023-03-08T09:03:13.445Z,7.93
2023-03-08T09:05:48.787Z,7.80
2023-03-08T09:08:26.926Z,8.10
2023-03-08T09:11:07.733Z,10.77
2023-03-08T09:13:43.692Z,6.70
2023-03-08T09:16:23.349Z,7.07
2023-03-08T09:19:01.157Z,9.07
2023-03-08T09:21:39.555Z,5.65
2023-03-08T09:24:20.135Z,5.32
2023-03-08T09:26:55.807Z,6.80
2023-03-08T09:29:35.065Z,7.50
2023-03-08T09:32:12.754Z,8.70
2023-03-08T09:34:49.237Z,7.28
2023-03-08T09:37:25.827Z,10.88
2023-03-08T09:40:09.842Z,8.52
2023-03-08T09:42:48.087Z,9.75
2023-03-08T09:45:23.534Z,7.20
2023-03-08T09:48:05.438Z,8.10
2023-03-08T09:50:43.178Z,9.88
2023-03-08T09:53:43.127Z,8.85
2023-03-08T09:56:35.342Z,8.80
2023-03-08T09:59:11.288Z,7.80
2023-03-08T10:01:48.784Z,11.95
2023-03-08T10:04:23.258Z,10.23
2023-03-08T10:07:07.211Z,11.75
2023-03-08T10:09:45.045Z,11.88
2023-03-08T10:12:26.835Z,9.63
2023-03-08T10:15:06.949Z,9.00
2023-03-08T10:17:46.001Z,9.30
2023-03-08T10:20:21.689Z,14.77
2023-03-08T10:23:00.999Z,9.75
2023-03-08T10:25:37.212Z,8.07
2023-03-08T10:28:19.055Z,10.75
2023-03-08T10:30:54.954Z,9.77
2023-03-08T10:33:35.292Z,8.52
2023-03-08T10:36:13.917Z,8.27
2023-03-08T10:38:47.908Z,8.55
2023-03-08T10:41:22.741Z,9.65
2023-03-08T10:44:01.832Z,8.02
2023-03-08T10:46:37.440Z,8.40
2023-03-08T10:49:18.815Z,9.45
2023-03-08T10:51:53.260Z,7.30
2023-03-08T10:54:30.700Z,10.88
2023-03-08T10:57:07.856Z,7.20
2023-03-08T10:59:45.633Z,8.95
2023-03-08T11:02:23.233Z,10.38
2023-03-08T11:04:59.197Z,8.35
2023-03-08T11:07:36.115Z,13.15
2023-03-08T11:10:10.785Z,11.20
2023-03-08T11:12:48.858Z,13.55
2023-03-08T11:15:22.946Z,8.73
2023-03-08T11:18:05.692Z,12.35
2023-03-08T11:20:46.063Z,11.80
2023-03-08T11:23:26.509Z,11.18
2023-03-08T11:26:03.025Z,14.93
2023-03-08T11:28:56.848Z,16.10
2023-03-08T11:31:36.807Z,15.82
2023-03-08T11:34:30.303Z,14.20
2023-03-08T11:37:13.067Z,13.05
2023-03-08T11:39:50.207Z,13.93
2023-03-08T11:42:30.383Z,14.82
2023-03-08T11:45:19.873Z,16.13
2023-03-08T11:48:15.968Z,13.17
2023-03-08T11:50:53.197Z,19.73
2023-03-08T11:53:39.018Z,16.83
2023-03-08T11:56:29.751Z,17.30
2023-03-08T11:59:07.621Z,13.32
2023-03-08T12:01:48.261Z,13.60
2023-03-08T12:04:29.745Z,18.38
2023-03-08T12:07:10.032Z,18.10
2023-03-08T12:09:54.878Z,31.30
2023-03-08T12:12:32.385Z,16.20
2023-03-08T12:15:11.452Z,16.63
2023-03-08T12:17:47.797Z,15.57
2023-03-08T12:20:24.682Z,12.05
2023-03-08T12:23:06.410Z,12.73
2023-03-08T12:25:45.345Z,14.20
2023-03-08T12:28:24.693Z,14.65
2023-03-08T12:31:18.154Z,13.55
2023-03-08T12:34:00.231Z,12.23
2023-03-08T12:36:43.146Z,13.52
2023-03-08T12:39:29.535Z,15.85
2023-03-08T12:42:04.735Z,11.88
2023-03-08T12:44:46.276Z,14.80
2023-03-08T12:47:25.891Z,10.05
2023-03-08T12:50:01.861Z,12.13
2023-03-08T12:52:38.309Z,13.23
2023-03-08T12:55:22.149Z,15.52
2023-03-08T12:57:58.553Z,17.35
2023-03-08T13:00:39.541Z,14.10
2023-03-08T13:03:14.033Z,14.93
2023-03-08T13:05:52.624Z,17.75
2023-03-08T13:08:36.077Z,12.55
2023-03-08T13:11:09.792Z,17.15
2023-03-08T13:13:52.463Z,13.75
2023-03-08T13:16:40.017Z,15.77
2023-03-08T13:19:22.141Z,20.67
2023-03-08T13:22:03.006Z,13.35
2023-03-08T13:24:43.022Z,17.27
2023-03-08T13:27:28.868Z,15.27
2023-03-08T13:30:06.408Z,15.30
2023-03-08T13:32:44.392Z,21.67
2023-03-08T13:35:20.506Z,22.25
2023-03-08T13:37:59.545Z,17.70
2023-03-08T13:40:34.984Z,17.80
2023-03-08T13:43:15.130Z,16.25
2023-03-08T13:45:51.241Z,14.10
2023-03-08T13:51:05.095Z,16.17
2023-03-08T13:53:43.793Z,16.60
2023-03-08T13:56:27.142Z,20.27
2023-03-08T13:59:04.029Z,17.00
2023-03-08T14:01:51.768Z,20.02
2023-03-08T14:04:27.251Z,18.85
2023-03-08T14:07:08.332Z,16.17
2023-03-08T14:09:46.142Z,16.40
2023-03-08T14:12:24.723Z,16.65
2023-03-08T14:15:04.084Z,15.55
2023-03-08T14:17:38.252Z,17.40
2023-03-08T14:20:23.949Z,16.33
2023-03-08T14:23:18.451Z,16.80
2023-03-08T14:26:03.593Z,16.45
2023-03-08T14:28:43.953Z,15.77
2023-03-08T14:31:18.062Z,17.65
2023-03-08T14:34:02.522Z,14.10
2023-03-08T14:36:40.090Z,13.55
2023-03-08T14:39:24.103Z,14.95
2023-03-08T14:42:00.190Z,16.08
2023-03-08T14:47:22.024Z,17.90
2023-03-08T14:50:06.950Z,18.77
2023-03-08T14:52:53.903Z,20.15
2023-03-08T14:55:37.246Z,25.50
2023-03-08T14:58:16.486Z,19.65
2023-03-08T15:00:57.481Z,17.92
2023-03-08T15:03:33.654Z,19.38
2023-03-08T15:06:14.107Z,19.17
2023-03-08T15:08:49.418Z,20.40
2023-03-08T15:14:05.983Z,22.10
2023-03-08T15:16:42.824Z,23.60
2023-03-08T15:19:17.844Z,24.58
2023-03-08T15:21:54.074Z,24.00
2023-03-08T15:24:30.107Z,27.25
2023-03-08T15:29:43.247Z,26.73
2023-03-08T15:32:18.780Z,28.88
2023-03-08T15:34:54.712Z,24.60
2023-03-08T15:37:35.624Z,30.15
2023-03-08T15:40:16.784Z,22.25
2023-03-08T15:42:51.690Z,24.25
2023-03-08T15:45:31.324Z,25.75
2023-03-08T15:48:10.636Z,31.77
2023-03-08T15:50:46.383Z,31.47
2023-03-08T15:53:34.902Z,26.55
2023-03-08T15:56:13.930Z,29.92
2023-03-08T15:58:50.788Z,25.70
2023-03-08T16:01:29.022Z,27.77
2023-03-08T16:04:12.407Z,29.30
2023-03-08T16:06:48.499Z,35.75
2023-03-08T16:11:59.893Z,35.00
2023-03-08T16:14:38.101Z,38.00
2023-03-08T16:17:16.816Z,43.30
2023-03-08T16:19:52.647Z,54.63
2023-03-08T16:22:29.063Z,45.63
2023-03-08T16:25:13.355Z,44.05
2023-03-08T16:27:50.690Z,38.08
2023-03-08T16:30:27.007Z,37.53
2023-03-08T16:33:07.991Z,43.80
2023-03-08T16:36:02.623Z,37.60
2023-03-08T16:38:38.119Z,37.42
2023-03-08T16:41:14.672Z,42.92
2023-03-08T16:43:49.649Z,44.53
2023-03-08T16:46:27.407Z,43.30
2023-03-08T16:49:07.182Z,48.05
2023-03-08T16:51:44.938Z,47.75
2023-03-08T16:54:22.287Z,51.75
2023-03-08T16:57:04.843Z,39.38
2023-03-08T16:59:52.119Z,40.10
2023-03-08T17:02:31.062Z,94.72
2023-03-08T17:05:14.369Z,44.97
2023-03-08T17:07:50.867Z,46.63
2023-03-08T17:10:28.534Z,47.03
2023-03-08T17:13:07.966Z,39.55
2023-03-08T17:15:46.521Z,35.00
2023-03-08T17:18:27.284Z,38.08
2023-03-08T17:21:08.433Z,28.20
2023-03-08T17:23:43.307Z,37.53
2023-03-08T17:26:20.021Z,46.20
2023-03-08T17:28:55.030Z,37.55
2023-03-08T17:31:34.741Z,36.00
2023-03-08T17:34:10.384Z,35.28
2023-03-08T17:36:47.666Z,35.60
2023-03-08T17:39:24.817Z,30.83
2023-03-08T17:42:07.810Z,33.97
2023-03-08T17:44:46.449Z,33.75
2023-03-08T17:47:25.462Z,30.63
2023-03-08T17:49:59.866Z,33.45
2023-03-08T17:52:39.864Z,84.50
2023-03-08T17:55:15.597Z,37.63
2023-03-08T17:57:53.106Z,43.55
2023-03-08T18:00:32.111Z,41.45
2023-03-08T18:03:10.009Z,39.50
2023-03-08T18:05:50.966Z,46.95
2023-03-08T18:08:29.160Z,48.80
2023-03-08T18:11:04.069Z,146.85
2023-03-08T18:13:40.778Z,56.95
2023-03-08T18:16:19.087Z,45.40
2023-03-08T18:18:55.078Z,54.40
2023-03-08T18:24:09.102Z,81.80
2023-03-08T18:26:45.597Z,53.72
2023-03-08T18:29:23.348Z,45.33
2023-03-08T18:31:59.043Z,52.72
2023-03-08T18:34:35.648Z,60.73
2023-03-08T18:37:11.827Z,59.75
2023-03-08T18:39:49.520Z,67.45
2023-03-08T18:42:25.153Z,57.92
2023-03-08T18:45:02.117Z,64.43
2023-03-08T18:47:38.799Z,59.45
2023-03-08T18:50:20.647Z,46.63
2023-03-08T18:52:57.114Z,56.45
2023-03-08T18:55:38.012Z,46.33
2023-03-08T18:58:16.643Z,46.45
2023-03-08T19:00:55.109Z,50.67
2023-03-08T19:03:30.374Z,55.03
2023-03-08T19:06:05.635Z,47.80
2023-03-08T19:08:40.820Z,51.67
2023-03-08T19:11:20.855Z,50.78
2023-03-08T19:13:57.507Z,53.97
2023-03-08T19:16:38.422Z,49.30
2023-03-08T19:19:14.833Z,54.97
2023-03-08T19:21:51.920Z,48.83
2023-03-08T19:24:31.176Z,47.95
2023-03-08T19:27:13.847Z,62.08
2023-03-08T19:29:48.580Z,53.75
2023-03-08T19:32:24.164Z,55.45
2023-03-08T19:34:58.583Z,47.75
2023-03-08T19:37:36.222Z,49.83
2023-03-08T19:40:16.071Z,49.17
2023-03-08T19:42:59.891Z,48.63
2023-03-08T19:45:35.715Z,44.75
2023-03-08T19:48:12.759Z,42.90
2023-03-08T19:50:51.678Z,42.83
2023-03-08T19:53:28.490Z,45.42
2023-03-08T19:56:03.903Z,65.97
2023-03-08T19:58:43.213Z,57.28
2023-03-08T20:01:20.098Z,48.80
2023-03-08T20:03:56.616Z,40.40
2023-03-08T20:06:34.678Z,41.42
2023-03-08T20:09:09.460Z,46.45
2023-03-08T20:11:46.972Z,45.47
2023-03-08T20:14:21.128Z,54.22
2023-03-08T20:17:04.994Z,53.00
2023-03-08T20:19:42.336Z,60.17
2023-03-08T20:22:18.176Z,57.90
2023-03-08T20:24:56.594Z,46.28
2023-03-08T20:27:34.093Z,43.50
2023-03-08T20:30:15.580Z,55.22
2023-03-08T20:32:54.838Z,53.65
2023-03-08T20:35:31.921Z,51.60
2023-03-08T20:38:08.021Z,69.85
2023-03-08T20:43:23.166Z,52.05
2023-03-08T20:46:01.915Z,51.63
2023-03-08T20:48:36.115Z,52.80
2023-03-08T20:51:16.747Z,54.80
2023-03-08T20:53:53.179Z,49.25
2023-03-08T20:56:31.628Z,50.33
2023-03-08T20:59:06.393Z,57.00
2023-03-08T21:01:45.436Z,49.15
2023-03-08T21:04:20.013Z,58.92
2023-03-08T21:06:58.758Z,56.10
2023-03-08T21:09:34.322Z,62.10
2023-03-08T21:12:11.935Z,54.03
2023-03-08T21:14:47.149Z,57.47
2023-03-08T21:17:26.925Z,51.30
2023-03-08T21:20:03.457Z,61.15
2023-03-08T21:22:44.612Z,59.85
2023-03-08T21:25:20.325Z,60.80
2023-03-08T21:27:57.365Z,50.90
2023-03-08T21:30:34.208Z,64.88
2023-03-08T21:33:12.774Z,54.17
2023-03-08T21:35:48.631Z,55.60
2023-03-08T21:38:29.170Z,56.45
2023-03-08T21:41:07.095Z,50.58
2023-03-08T21:43:43.424Z,56.47
2023-03-08T21:46:22.255Z,59.92
2023-03-08T21:49:00.740Z,60.43
2023-03-08T21:51:37.643Z,63.60
2023-03-08T21:54:16.888Z,65.17
2023-03-08T21:56:53.617Z,55.92
2023-03-08T21:59:30.022Z,51.37
2023-03-08T22:04:44.616Z,55.08
2023-03-08T22:07:18.904Z,44.53
2023-03-08T22:09:58.580Z,55.55
2023-03-08T22:12:36.469Z,53.00
2023-03-08T22:15:16.529Z,54.05
2023-03-08T22:17:51.486Z,48.53
2023-03-08T22:20:29.393Z,49.95
2023-03-08T22:23:04.254Z,42.10
2023-03-08T22:25:44.590Z,48.70
2023-03-08T22:28:22.286Z,36.65
2023-03-08T22:31:00.005Z,51.72
2023-03-08T22:33:35.415Z,46.83
2023-03-08T22:36:14.914Z,35.65
2023-03-08T22:38:51.069Z,41.43
2023-03-08T22:41:31.931Z,42.00
2023-03-08T22:44:07.101Z,32.65
2023-03-08T22:46:42.909Z,38.47
2023-03-08T22:49:20.096Z,31.65
2023-03-08T22:51:56.283Z,46.17
2023-03-08T22:54:33.858Z,46.05
2023-03-08T22:57:14.088Z,54.25
2023-03-08T22:59:51.043Z,47.08
2023-03-08T23:02:28.002Z,50.33
2023-03-08T23:05:04.639Z,57.65
2023-03-08T23:07:40.227Z,45.60
2023-03-08T23:10:17.393Z,57.37
2023-03-08T23:13:01.747Z,47.28
2023-03-08T23:15:40.246Z,42.92
2023-03-08T23:18:20.451Z,58.70
2023-03-08T23:20:56.578Z,47.50
2023-03-08T23:23:32.417Z,49.45
2023-03-08T23:26:07.776Z,42.90
2023-03-08T23:28:44.987Z,42.20
2023-03-08T23:31:24.887Z,47.30
2023-03-08T23:34:00.929Z,44.55
2023-03-08T23:36:37.470Z,44.88
2023-03-08T23:39:16.329Z,47.63
2023-03-08T23:41:51.675Z,50.83
2023-03-08T23:44:26.753Z,48.17
2023-03-08T23:47:06.441Z,49.05
2023-03-08T23:49:44.729Z,50.72
2023-03-08T23:52:21.403Z,52.97
2023-03-08T23:54:56.970Z,56.63
2023-03-08T23:57:36.608Z,49.63
